NKS3012 KLAS-KDFW
Flight info
| Callsign | NKS3012 |
|---|---|
| Flight time | N/A |
| Altitude | 37000 |
| Route | NIITZ4 SSKEE GUP J72 TXO TURKI JOVEM6 |
| Aircraft | A319/M-SDE3FGHIRWY/LB1 |
Departure
| Time | 2026-05-07 01:08 |
|---|---|
| Airport | Harry Reid International Airport (KLAS) |
Arrival
| Time | N/A |
|---|---|
| Airport | Dallas Fort Worth International Airport (KDFW) |
| Time | Latitude | Longitude | Altitude | Speed | Heading |
|---|---|---|---|---|---|
| 2026-05-07 00:29 | 36.08570 | -115.15463 | 2112 ft | 0 kts | 146° |
| 2026-05-07 00:45 | 36.08571 | -115.15464 | 2112 ft | 1 kts | 146° |
| 2026-05-07 00:45 | 36.08584 | -115.15475 | 2112 ft | 2 kts | 146° |
| 2026-05-07 00:45 | 36.08596 | -115.15485 | 2112 ft | 2 kts | 146° |
| 2026-05-07 00:46 | 36.08609 | -115.15494 | 2112 ft | 2 kts | 166° |
| 2026-05-07 00:46 | 36.08624 | -115.15496 | 2112 ft | 2 kts | 187° |
| 2026-05-07 00:46 | 36.08638 | -115.15491 | 2112 ft | 2 kts | 203° |
| 2026-05-07 00:46 | 36.08652 | -115.15483 | 2111 ft | 1 kts | 212° |
| 2026-05-07 00:47 | 36.08657 | -115.15479 | 2111 ft | 1 kts | 216° |
| 2026-05-07 00:47 | 36.08658 | -115.15478 | 2111 ft | 0 kts | 216° |
| 2026-05-07 00:50 | 36.08657 | -115.15479 | 2111 ft | 2 kts | 216° |
| 2026-05-07 00:51 | 36.08618 | -115.15525 | 2113 ft | 13 kts | 227° |
| 2026-05-07 00:51 | 36.08530 | -115.15604 | 2118 ft | 15 kts | 176° |
| 2026-05-07 00:51 | 36.08434 | -115.15554 | 2118 ft | 14 kts | 155° |
| 2026-05-07 00:51 | 36.08340 | -115.15500 | 2118 ft | 14 kts | 155° |
| 2026-05-07 00:52 | 36.08254 | -115.15450 | 2118 ft | 12 kts | 155° |
| 2026-05-07 00:52 | 36.08155 | -115.15430 | 2120 ft | 16 kts | 193° |
| 2026-05-07 00:52 | 36.08071 | -115.15443 | 2123 ft | 9 kts | 163° |
| 2026-05-07 00:52 | 36.08044 | -115.15430 | 2123 ft | 0 kts | 154° |
| 2026-05-07 01:00 | 36.08045 | -115.15430 | 2123 ft | 0 kts | 154° |
| 2026-05-07 01:00 | 36.08023 | -115.15417 | 2124 ft | 9 kts | 154° |
| 2026-05-07 01:00 | 36.07924 | -115.15360 | 2124 ft | 18 kts | 155° |
| 2026-05-07 01:01 | 36.07807 | -115.15246 | 2122 ft | 25 kts | 102° |
| 2026-05-07 01:01 | 36.07799 | -115.15022 | 2113 ft | 26 kts | 95° |
| 2026-05-07 01:01 | 36.07784 | -115.14795 | 2105 ft | 27 kts | 94° |
| 2026-05-07 01:01 | 36.07767 | -115.14543 | 2098 ft | 29 kts | 94° |
| 2026-05-07 01:02 | 36.07754 | -115.14288 | 2089 ft | 29 kts | 89° |
| 2026-05-07 01:02 | 36.07755 | -115.14042 | 2082 ft | 28 kts | 90° |
| 2026-05-07 01:02 | 36.07754 | -115.13800 | 2075 ft | 27 kts | 90° |
| 2026-05-07 01:02 | 36.07755 | -115.13569 | 2067 ft | 26 kts | 90° |
| 2026-05-07 01:03 | 36.07755 | -115.13341 | 2061 ft | 26 kts | 90° |
| 2026-05-07 01:03 | 36.07755 | -115.13116 | 2055 ft | 25 kts | 90° |
| 2026-05-07 01:03 | 36.07755 | -115.12900 | 2049 ft | 24 kts | 90° |
| 2026-05-07 01:03 | 36.07755 | -115.12690 | 2044 ft | 23 kts | 90° |
| 2026-05-07 01:04 | 36.07755 | -115.12476 | 2040 ft | 28 kts | 90° |
| 2026-05-07 01:04 | 36.07756 | -115.12241 | 2037 ft | 20 kts | 90° |
| 2026-05-07 01:04 | 36.07739 | -115.12138 | 2037 ft | 0 kts | 142° |
| 2026-05-07 01:05 | 36.07737 | -115.12137 | 2037 ft | 2 kts | 144° |
| 2026-05-07 01:06 | 36.07676 | -115.12127 | 2038 ft | 14 kts | 182° |
| 2026-05-07 01:06 | 36.07642 | -115.12203 | 2039 ft | 0 kts | 270° |
| 2026-05-07 01:07 | 36.07642 | -115.12271 | 2039 ft | 33 kts | 271° |
| 2026-05-07 01:07 | 36.07643 | -115.12852 | 2050 ft | 99 kts | 270° |
| 2026-05-07 01:07 | 36.07641 | -115.13962 | 2081 ft | 154 kts | 270° |
| 2026-05-07 01:08 | 36.07639 | -115.15392 | 2429 ft | 171 kts | 270° |
| 2026-05-07 01:08 | 36.07650 | -115.16859 | 3005 ft | 173 kts | 271° |
| 2026-05-07 01:08 | 36.07669 | -115.18339 | 3607 ft | 174 kts | 271° |
| 2026-05-07 01:08 | 36.07689 | -115.19878 | 4036 ft | 181 kts | 270° |
| 2026-05-07 01:09 | 36.07582 | -115.21480 | 4284 ft | 194 kts | 262° |
| 2026-05-07 01:09 | 36.07344 | -115.23177 | 4547 ft | 207 kts | 259° |
| 2026-05-07 01:09 | 36.06990 | -115.24964 | 4809 ft | 222 kts | 245° |
| 2026-05-07 01:09 | 36.05939 | -115.26453 | 4991 ft | 241 kts | 208° |
| 2026-05-07 01:10 | 36.04359 | -115.27249 | 5342 ft | 255 kts | 198° |
| 2026-05-07 01:10 | 36.02599 | -115.27988 | 5673 ft | 273 kts | 199° |
| 2026-05-07 01:10 | 36.00738 | -115.28683 | 6167 ft | 284 kts | 188° |
| 2026-05-07 01:10 | 35.98800 | -115.28497 | 6837 ft | 286 kts | 160° |
| 2026-05-07 01:11 | 35.97098 | -115.27231 | 7577 ft | 286 kts | 139° |
| 2026-05-07 01:11 | 35.95632 | -115.25603 | 8318 ft | 288 kts | 136° |
| 2026-05-07 01:11 | 35.94161 | -115.23927 | 9045 ft | 290 kts | 136° |
| 2026-05-07 01:11 | 35.92683 | -115.22243 | 9769 ft | 292 kts | 135° |
| 2026-05-07 01:12 | 35.91310 | -115.20365 | 10449 ft | 295 kts | 127° |
| 2026-05-07 01:12 | 35.90125 | -115.18243 | 10784 ft | 310 kts | 121° |
| 2026-05-07 01:12 | 35.88967 | -115.15875 | 11157 ft | 324 kts | 120° |
| 2026-05-07 01:12 | 35.87809 | -115.13454 | 11784 ft | 327 kts | 118° |
| 2026-05-07 01:13 | 35.86963 | -115.10858 | 12436 ft | 329 kts | 104° |
| 2026-05-07 01:13 | 35.86683 | -115.08070 | 13051 ft | 333 kts | 90° |
| 2026-05-07 01:13 | 35.86791 | -115.05172 | 13671 ft | 336 kts | 87° |
| 2026-05-07 01:13 | 35.86965 | -115.02310 | 14264 ft | 339 kts | 86° |
| 2026-05-07 01:14 | 35.87147 | -114.99390 | 14841 ft | 342 kts | 86° |
| 2026-05-07 01:14 | 35.87324 | -114.96423 | 15410 ft | 346 kts | 87° |
| 2026-05-07 01:14 | 35.87497 | -114.93426 | 15971 ft | 349 kts | 87° |
| 2026-05-07 01:14 | 35.87666 | -114.90430 | 16529 ft | 352 kts | 87° |
| 2026-05-07 01:15 | 35.87835 | -114.87349 | 17090 ft | 356 kts | 88° |
| 2026-05-07 01:15 | 35.88002 | -114.84290 | 17635 ft | 359 kts | 88° |
| 2026-05-07 01:15 | 35.88167 | -114.81225 | 18168 ft | 362 kts | 88° |
| 2026-05-07 01:15 | 35.88335 | -114.78101 | 18699 ft | 365 kts | 88° |
| 2026-05-07 01:16 | 35.88504 | -114.74931 | 19225 ft | 368 kts | 88° |
| 2026-05-07 01:16 | 35.88672 | -114.71779 | 19736 ft | 371 kts | 88° |
| 2026-05-07 01:16 | 35.88844 | -114.68546 | 20247 ft | 374 kts | 88° |
| 2026-05-07 01:16 | 35.89014 | -114.65326 | 20744 ft | 378 kts | 88° |
| 2026-05-07 01:17 | 35.89184 | -114.62093 | 21230 ft | 381 kts | 88° |
| 2026-05-07 01:17 | 35.89356 | -114.58784 | 21714 ft | 384 kts | 88° |
| 2026-05-07 01:17 | 35.89527 | -114.55466 | 22187 ft | 387 kts | 88° |
| 2026-05-07 01:17 | 35.89652 | -114.52129 | 22646 ft | 390 kts | 91° |
| 2026-05-07 01:18 | 35.89652 | -114.48717 | 23102 ft | 392 kts | 92° |
| 2026-05-07 01:18 | 35.89628 | -114.45320 | 23546 ft | 395 kts | 92° |
| 2026-05-07 01:18 | 35.89601 | -114.41894 | 23947 ft | 399 kts | 92° |
| 2026-05-07 01:18 | 35.89577 | -114.38476 | 24343 ft | 402 kts | 92° |
| 2026-05-07 01:19 | 35.89554 | -114.34993 | 24749 ft | 405 kts | 92° |
| 2026-05-07 01:19 | 35.89533 | -114.31733 | 25119 ft | 408 kts | 93° |
| 2026-05-07 01:19 | 35.89511 | -114.28207 | 25506 ft | 411 kts | 93° |
| 2026-05-07 01:19 | 35.89488 | -114.24683 | 25880 ft | 414 kts | 93° |
| 2026-05-07 01:20 | 35.89464 | -114.21129 | 26246 ft | 416 kts | 93° |
| 2026-05-07 01:20 | 35.89438 | -114.17485 | 26612 ft | 419 kts | 93° |
| 2026-05-07 01:20 | 35.89412 | -114.13876 | 26966 ft | 422 kts | 93° |
| 2026-05-07 01:20 | 35.89384 | -114.10235 | 27315 ft | 424 kts | 93° |
| 2026-05-07 01:21 | 35.89355 | -114.06599 | 27655 ft | 427 kts | 93° |
| 2026-05-07 01:21 | 35.89325 | -114.02924 | 27991 ft | 430 kts | 93° |
| 2026-05-07 01:21 | 35.89294 | -113.99176 | 28320 ft | 432 kts | 93° |
| 2026-05-07 01:21 | 35.89262 | -113.95445 | 28655 ft | 434 kts | 93° |
| 2026-05-07 01:22 | 35.89228 | -113.91747 | 28991 ft | 436 kts | 93° |
| 2026-05-07 01:22 | 35.89194 | -113.87946 | 29307 ft | 438 kts | 93° |
| 2026-05-07 01:22 | 35.89158 | -113.84147 | 29608 ft | 441 kts | 93° |
| 2026-05-07 01:22 | 35.89121 | -113.80334 | 29901 ft | 443 kts | 93° |
| 2026-05-07 01:23 | 35.89083 | -113.76501 | 30190 ft | 446 kts | 93° |
| 2026-05-07 01:23 | 35.89045 | -113.72666 | 30470 ft | 448 kts | 93° |
| 2026-05-07 01:23 | 35.89005 | -113.68751 | 30749 ft | 450 kts | 93° |
| 2026-05-07 01:23 | 35.88965 | -113.64912 | 31015 ft | 453 kts | 93° |
| 2026-05-07 01:24 | 35.88920 | -113.61011 | 31280 ft | 455 kts | 93° |
| 2026-05-07 01:24 | 35.88856 | -113.57079 | 31598 ft | 455 kts | 94° |
| 2026-05-07 01:24 | 35.88636 | -113.53159 | 31969 ft | 453 kts | 98° |
| 2026-05-07 01:24 | 35.88232 | -113.49316 | 32332 ft | 451 kts | 101° |
| 2026-05-07 01:25 | 35.87701 | -113.45512 | 32679 ft | 450 kts | 102° |
| 2026-05-07 01:25 | 35.87152 | -113.41736 | 33003 ft | 450 kts | 102° |
| 2026-05-07 01:25 | 35.86595 | -113.37918 | 33318 ft | 450 kts | 102° |
| 2026-05-07 01:25 | 35.86075 | -113.34347 | 33605 ft | 450 kts | 103° |
| 2026-05-07 01:26 | 35.85556 | -113.30755 | 33893 ft | 449 kts | 103° |
| 2026-05-07 01:26 | 35.85010 | -113.26968 | 34195 ft | 449 kts | 103° |
| 2026-05-07 01:26 | 35.84465 | -113.23195 | 34492 ft | 448 kts | 103° |
| 2026-05-07 01:26 | 35.83915 | -113.19393 | 34788 ft | 447 kts | 103° |
| 2026-05-07 01:27 | 35.83363 | -113.15593 | 35077 ft | 447 kts | 103° |
| 2026-05-07 01:27 | 35.82817 | -113.11837 | 35352 ft | 446 kts | 103° |
| 2026-05-07 01:27 | 35.82267 | -113.08070 | 35591 ft | 446 kts | 103° |
| 2026-05-07 01:27 | 35.81712 | -113.04277 | 35800 ft | 447 kts | 103° |
| 2026-05-07 01:28 | 35.81158 | -113.00497 | 35989 ft | 448 kts | 103° |
| 2026-05-07 01:28 | 35.80608 | -112.96738 | 36128 ft | 450 kts | 103° |
| 2026-05-07 01:28 | 35.80051 | -112.92947 | 36228 ft | 453 kts | 103° |
| 2026-05-07 01:29 | 35.78916 | -112.85254 | 36402 ft | 460 kts | 104° |
| 2026-05-07 01:29 | 35.77752 | -112.77384 | 36580 ft | 466 kts | 104° |
| 2026-05-07 01:29 | 35.77171 | -112.73486 | 36761 ft | 466 kts | 104° |
| 2026-05-07 01:30 | 35.76582 | -112.69546 | 36961 ft | 466 kts | 104° |
| 2026-05-07 01:30 | 35.75994 | -112.65635 | 37128 ft | 467 kts | 104° |
| 2026-05-07 01:30 | 35.75397 | -112.61700 | 37171 ft | 469 kts | 104° |
| 2026-05-07 01:31 | 35.74191 | -112.53730 | 37182 ft | 469 kts | 104° |
| 2026-05-07 01:31 | 35.72994 | -112.45808 | 37185 ft | 469 kts | 104° |
| 2026-05-07 01:32 | 35.71788 | -112.37839 | 37185 ft | 469 kts | 104° |
| 2026-05-07 01:32 | 35.70613 | -112.30093 | 37184 ft | 469 kts | 104° |
| 2026-05-07 01:33 | 35.69414 | -112.22209 | 37185 ft | 469 kts | 104° |
| 2026-05-07 01:33 | 35.68204 | -112.14307 | 37185 ft | 469 kts | 104° |
| 2026-05-07 01:34 | 35.66987 | -112.06400 | 37186 ft | 469 kts | 104° |
| 2026-05-07 01:34 | 35.65758 | -111.98433 | 37185 ft | 469 kts | 104° |
| 2026-05-07 01:35 | 35.64541 | -111.90588 | 37186 ft | 469 kts | 104° |
| 2026-05-07 01:35 | 35.63414 | -111.82726 | 37187 ft | 470 kts | 101° |
| 2026-05-07 01:36 | 35.62888 | -111.74687 | 37190 ft | 472 kts | 96° |
| 2026-05-07 01:36 | 35.62563 | -111.66598 | 37193 ft | 472 kts | 95° |
| 2026-05-07 01:37 | 35.62231 | -111.58476 | 37197 ft | 472 kts | 96° |
| 2026-05-07 01:37 | 35.61887 | -111.50417 | 37200 ft | 472 kts | 96° |
| 2026-05-07 01:38 | 35.61532 | -111.42306 | 37202 ft | 472 kts | 96° |
| 2026-05-07 01:38 | 35.61174 | -111.34274 | 37202 ft | 472 kts | 96° |
| 2026-05-07 01:39 | 35.60812 | -111.26214 | 37194 ft | 472 kts | 96° |
| 2026-05-07 01:39 | 35.60442 | -111.18119 | 37171 ft | 472 kts | 96° |
| 2026-05-07 01:40 | 35.60065 | -111.10037 | 37139 ft | 472 kts | 96° |
| 2026-05-07 01:40 | 35.59682 | -111.02003 | 37113 ft | 475 kts | 96° |
| 2026-05-07 01:41 | 35.59287 | -110.93818 | 37100 ft | 478 kts | 95° |
| 2026-05-07 01:41 | 35.58887 | -110.85628 | 37095 ft | 480 kts | 95° |
| 2026-05-07 01:42 | 35.58489 | -110.77470 | 37094 ft | 480 kts | 95° |
| 2026-05-07 01:42 | 35.58081 | -110.69288 | 37092 ft | 480 kts | 95° |
| 2026-05-07 01:43 | 35.57665 | -110.61063 | 37093 ft | 480 kts | 95° |
| 2026-05-07 01:43 | 35.57246 | -110.52911 | 37094 ft | 481 kts | 95° |
| 2026-05-07 01:44 | 35.56822 | -110.44740 | 37093 ft | 480 kts | 95° |
| 2026-05-07 01:44 | 35.56390 | -110.36536 | 37094 ft | 480 kts | 95° |
| 2026-05-07 01:45 | 35.55954 | -110.28353 | 37092 ft | 480 kts | 96° |
| 2026-05-07 01:45 | 35.55513 | -110.20167 | 37092 ft | 480 kts | 96° |
| 2026-05-07 01:46 | 35.55066 | -110.11990 | 37095 ft | 480 kts | 96° |
| 2026-05-07 01:46 | 35.54613 | -110.03815 | 37102 ft | 480 kts | 96° |
| 2026-05-07 01:47 | 35.54151 | -109.95583 | 37119 ft | 480 kts | 96° |
| 2026-05-07 01:47 | 35.53685 | -109.87392 | 37141 ft | 480 kts | 96° |
| 2026-05-07 01:48 | 35.53215 | -109.79203 | 37157 ft | 480 kts | 96° |
| 2026-05-07 01:48 | 35.52740 | -109.71024 | 37163 ft | 480 kts | 96° |
| 2026-05-07 01:49 | 35.52258 | -109.62827 | 37165 ft | 480 kts | 96° |
| 2026-05-07 01:49 | 35.51770 | -109.54645 | 37165 ft | 480 kts | 96° |
| 2026-05-07 01:50 | 35.51277 | -109.46433 | 37165 ft | 479 kts | 96° |
| 2026-05-07 01:50 | 35.50781 | -109.38295 | 37167 ft | 479 kts | 96° |
| 2026-05-07 01:51 | 35.50287 | -109.30214 | 37164 ft | 480 kts | 96° |
| 2026-05-07 01:51 | 35.49783 | -109.22072 | 37167 ft | 479 kts | 96° |
| 2026-05-07 01:52 | 35.49267 | -109.13857 | 37164 ft | 480 kts | 96° |
| 2026-05-07 01:52 | 35.48751 | -109.05709 | 37164 ft | 483 kts | 96° |
| 2026-05-07 01:53 | 35.48224 | -108.97446 | 37164 ft | 486 kts | 95° |
| 2026-05-07 01:53 | 35.47615 | -108.89114 | 37166 ft | 488 kts | 98° |
| 2026-05-07 01:54 | 35.46330 | -108.80959 | 37167 ft | 487 kts | 105° |
| 2026-05-07 01:54 | 35.44674 | -108.72876 | 37167 ft | 487 kts | 106° |
| 2026-05-07 01:55 | 35.43020 | -108.64835 | 37165 ft | 487 kts | 105° |
| 2026-05-07 01:55 | 35.41384 | -108.56819 | 37165 ft | 486 kts | 105° |
| 2026-05-07 01:56 | 35.39739 | -108.48761 | 37166 ft | 487 kts | 105° |
| 2026-05-07 01:56 | 35.38086 | -108.40669 | 37167 ft | 486 kts | 105° |
| 2026-05-07 01:57 | 35.36521 | -108.33048 | 37169 ft | 487 kts | 106° |
| 2026-05-07 01:57 | 35.34867 | -108.24982 | 37177 ft | 486 kts | 106° |
| 2026-05-07 01:58 | 35.33203 | -108.16924 | 37184 ft | 486 kts | 106° |
| 2026-05-07 01:58 | 35.31531 | -108.08859 | 37190 ft | 486 kts | 106° |
| 2026-05-07 01:59 | 35.29861 | -108.00833 | 37192 ft | 486 kts | 106° |
| 2026-05-07 01:59 | 35.28189 | -107.92835 | 37191 ft | 486 kts | 106° |
| 2026-05-07 02:00 | 35.26502 | -107.84792 | 37193 ft | 486 kts | 106° |
| 2026-05-07 02:00 | 35.24815 | -107.76771 | 37193 ft | 486 kts | 106° |
| 2026-05-07 02:01 | 35.23117 | -107.68732 | 37192 ft | 487 kts | 106° |
| 2026-05-07 02:01 | 35.21426 | -107.60749 | 37192 ft | 486 kts | 106° |
| 2026-05-07 02:02 | 35.19724 | -107.52741 | 37192 ft | 486 kts | 106° |
| 2026-05-07 02:02 | 35.18018 | -107.44730 | 37192 ft | 486 kts | 106° |
| 2026-05-07 02:03 | 35.16300 | -107.36702 | 37182 ft | 486 kts | 106° |
| 2026-05-07 02:03 | 35.14589 | -107.28704 | 37166 ft | 486 kts | 107° |
| 2026-05-07 02:04 | 35.12868 | -107.20736 | 37152 ft | 485 kts | 107° |
| 2026-05-07 02:04 | 35.11143 | -107.12775 | 37144 ft | 486 kts | 107° |
| 2026-05-07 02:05 | 35.09407 | -107.04787 | 37140 ft | 486 kts | 107° |
| 2026-05-07 02:05 | 35.07657 | -106.96751 | 37139 ft | 488 kts | 107° |
| 2026-05-07 02:06 | 35.05913 | -106.88772 | 37138 ft | 490 kts | 106° |
| 2026-05-07 02:06 | 35.04253 | -106.80643 | 37138 ft | 494 kts | 101° |
| 2026-05-07 02:07 | 35.03157 | -106.72270 | 37147 ft | 497 kts | 98° |
| 2026-05-07 02:07 | 35.01695 | -106.59877 | 37145 ft | 498 kts | 98° |
| 2026-05-07 02:08 | 35.00700 | -106.51734 | 37141 ft | 499 kts | 98° |
| 2026-05-07 02:08 | 34.99662 | -106.43331 | 37135 ft | 500 kts | 98° |
| 2026-05-07 02:09 | 34.98660 | -106.35260 | 37133 ft | 501 kts | 98° |
| 2026-05-07 02:09 | 34.97614 | -106.26859 | 37130 ft | 502 kts | 99° |
| 2026-05-07 02:10 | 34.96565 | -106.18501 | 37130 ft | 503 kts | 99° |
| 2026-05-07 02:10 | 34.95495 | -106.10049 | 37131 ft | 504 kts | 99° |
| 2026-05-07 02:11 | 34.94417 | -106.01612 | 37130 ft | 505 kts | 99° |
| 2026-05-07 02:11 | 34.93325 | -105.93098 | 37131 ft | 506 kts | 99° |
| 2026-05-07 02:12 | 34.92237 | -105.84663 | 37131 ft | 507 kts | 99° |
| 2026-05-07 02:12 | 34.91127 | -105.76084 | 37133 ft | 508 kts | 100° |
| 2026-05-07 02:13 | 34.90020 | -105.67584 | 37136 ft | 509 kts | 100° |
| 2026-05-07 02:13 | 34.88874 | -105.59036 | 37139 ft | 510 kts | 101° |
| 2026-05-07 02:14 | 34.87722 | -105.50494 | 37143 ft | 511 kts | 100° |
| 2026-05-07 02:14 | 34.86595 | -105.42027 | 37145 ft | 511 kts | 101° |
| 2026-05-07 02:15 | 34.85453 | -105.33465 | 37142 ft | 511 kts | 101° |
| 2026-05-07 02:15 | 34.84323 | -105.24991 | 37146 ft | 511 kts | 101° |
| 2026-05-07 02:16 | 34.83175 | -105.16435 | 37146 ft | 511 kts | 101° |
| 2026-05-07 02:16 | 34.82014 | -105.07879 | 37145 ft | 511 kts | 101° |
| 2026-05-07 02:17 | 34.80839 | -104.99287 | 37145 ft | 515 kts | 100° |
| 2026-05-07 02:17 | 34.79661 | -104.90711 | 37145 ft | 518 kts | 99° |
| 2026-05-07 02:18 | 34.78485 | -104.82153 | 37146 ft | 520 kts | 99° |
| 2026-05-07 02:18 | 34.77282 | -104.73417 | 37147 ft | 521 kts | 99° |
| 2026-05-07 02:19 | 34.76072 | -104.64701 | 37147 ft | 521 kts | 99° |
| 2026-05-07 02:19 | 34.74853 | -104.55994 | 37147 ft | 521 kts | 99° |
| 2026-05-07 02:20 | 34.73633 | -104.47321 | 37147 ft | 521 kts | 99° |
| 2026-05-07 02:20 | 34.72404 | -104.38619 | 37147 ft | 521 kts | 99° |
| 2026-05-07 02:21 | 34.71167 | -104.29900 | 37144 ft | 520 kts | 100° |
| 2026-05-07 02:21 | 34.69927 | -104.21214 | 37147 ft | 520 kts | 99° |
| 2026-05-07 02:22 | 34.68687 | -104.12550 | 37147 ft | 521 kts | 99° |
| 2026-05-07 02:22 | 34.67431 | -104.03848 | 37148 ft | 521 kts | 100° |
| 2026-05-07 02:23 | 34.66177 | -103.95200 | 37145 ft | 520 kts | 100° |
| 2026-05-07 02:23 | 34.64911 | -103.86533 | 37135 ft | 520 kts | 100° |
| 2026-05-07 02:24 | 34.63636 | -103.77831 | 37123 ft | 520 kts | 99° |
| 2026-05-07 02:24 | 34.62358 | -103.69163 | 37110 ft | 521 kts | 100° |
| 2026-05-07 02:25 | 34.61078 | -103.60513 | 37095 ft | 520 kts | 100° |
| 2026-05-07 02:25 | 34.59785 | -103.51835 | 37075 ft | 520 kts | 100° |
| 2026-05-07 02:26 | 34.58486 | -103.43157 | 37054 ft | 520 kts | 100° |
| 2026-05-07 02:26 | 34.57221 | -103.34734 | 37041 ft | 520 kts | 101° |
| 2026-05-07 02:27 | 34.55964 | -103.26376 | 37040 ft | 521 kts | 101° |
| 2026-05-07 02:27 | 34.54658 | -103.17762 | 37047 ft | 521 kts | 100° |
| 2026-05-07 02:28 | 34.53344 | -103.09156 | 37055 ft | 519 kts | 100° |
| 2026-05-07 02:28 | 34.52045 | -103.00672 | 37059 ft | 516 kts | 100° |
| 2026-05-07 02:29 | 34.50726 | -102.92065 | 37062 ft | 514 kts | 99° |
| 2026-05-07 02:29 | 34.49437 | -102.83495 | 37063 ft | 513 kts | 97° |
| 2026-05-07 02:30 | 34.48497 | -102.74892 | 37064 ft | 512 kts | 95° |
| 2026-05-07 02:30 | 34.47631 | -102.66309 | 37066 ft | 512 kts | 95° |
| 2026-05-07 02:31 | 34.46756 | -102.57748 | 37080 ft | 512 kts | 95° |
| 2026-05-07 02:31 | 34.45864 | -102.49166 | 37105 ft | 512 kts | 95° |
| 2026-05-07 02:32 | 34.44964 | -102.40591 | 37133 ft | 512 kts | 95° |
| 2026-05-07 02:32 | 34.44058 | -102.32008 | 37144 ft | 512 kts | 96° |
| 2026-05-07 02:33 | 34.43146 | -102.23410 | 37153 ft | 512 kts | 96° |
| 2026-05-07 02:33 | 34.42233 | -102.14877 | 37153 ft | 512 kts | 96° |
| 2026-05-07 02:34 | 34.41308 | -102.06303 | 37145 ft | 512 kts | 96° |
| 2026-05-07 02:34 | 34.40373 | -101.97684 | 37130 ft | 512 kts | 96° |
| 2026-05-07 02:35 | 34.39438 | -101.89130 | 37115 ft | 512 kts | 96° |
| 2026-05-07 02:35 | 34.38501 | -101.80608 | 37108 ft | 512 kts | 96° |
| 2026-05-07 02:36 | 34.37554 | -101.72047 | 37104 ft | 512 kts | 96° |
| 2026-05-07 02:36 | 34.36597 | -101.63466 | 37106 ft | 512 kts | 96° |
| 2026-05-07 02:37 | 34.35648 | -101.54974 | 37109 ft | 512 kts | 96° |
| 2026-05-07 02:37 | 34.34682 | -101.46401 | 37110 ft | 512 kts | 96° |
| 2026-05-07 02:38 | 34.33709 | -101.37817 | 37110 ft | 512 kts | 96° |
| 2026-05-07 02:38 | 34.32744 | -101.29345 | 37108 ft | 512 kts | 96° |
| 2026-05-07 02:39 | 34.31765 | -101.20793 | 37110 ft | 512 kts | 96° |
| 2026-05-07 02:39 | 34.30779 | -101.12247 | 37110 ft | 512 kts | 96° |
| 2026-05-07 02:40 | 34.29773 | -101.03617 | 37110 ft | 512 kts | 97° |
| 2026-05-07 02:40 | 34.28759 | -100.95061 | 37111 ft | 511 kts | 96° |
| 2026-05-07 02:41 | 34.27749 | -100.86533 | 37110 ft | 509 kts | 95° |
| 2026-05-07 02:41 | 34.26748 | -100.78092 | 37107 ft | 506 kts | 95° |
| 2026-05-07 02:42 | 34.25741 | -100.69601 | 37104 ft | 506 kts | 95° |
| 2026-05-07 02:42 | 34.24765 | -100.61434 | 37103 ft | 506 kts | 95° |
| 2026-05-07 02:43 | 34.23746 | -100.52969 | 37103 ft | 506 kts | 95° |
| 2026-05-07 02:43 | 34.22727 | -100.44556 | 37103 ft | 506 kts | 95° |
| 2026-05-07 02:44 | 34.21707 | -100.36175 | 37103 ft | 506 kts | 95° |
| 2026-05-07 02:44 | 34.20580 | -100.27724 | 37102 ft | 507 kts | 100° |
| 2026-05-07 02:45 | 34.18661 | -100.19486 | 37104 ft | 509 kts | 109° |
| 2026-05-07 02:45 | 34.16213 | -100.11454 | 37103 ft | 509 kts | 110° |
| 2026-05-07 02:46 | 34.13749 | -100.03449 | 37103 ft | 509 kts | 110° |
| 2026-05-07 02:46 | 34.11314 | -99.95448 | 37103 ft | 509 kts | 109° |
| 2026-05-07 02:47 | 34.08860 | -99.87364 | 37103 ft | 509 kts | 109° |
| 2026-05-07 02:47 | 34.06411 | -99.79315 | 37103 ft | 509 kts | 109° |
| 2026-05-07 02:48 | 34.03965 | -99.71298 | 37100 ft | 509 kts | 109° |
| 2026-05-07 02:48 | 34.01529 | -99.63334 | 37096 ft | 509 kts | 109° |
| 2026-05-07 02:49 | 33.99070 | -99.55308 | 37090 ft | 509 kts | 109° |
| 2026-05-07 02:49 | 33.96601 | -99.47291 | 37086 ft | 509 kts | 110° |
| 2026-05-07 02:50 | 33.94106 | -99.39274 | 37085 ft | 509 kts | 110° |
| 2026-05-07 02:50 | 33.91611 | -99.31271 | 37082 ft | 509 kts | 110° |
| 2026-05-07 02:51 | 33.89071 | -99.23126 | 37082 ft | 509 kts | 110° |
| 2026-05-07 02:51 | 33.86599 | -99.15317 | 37083 ft | 509 kts | 110° |
| 2026-05-07 02:52 | 33.84088 | -99.07338 | 36695 ft | 511 kts | 110° |
| 2026-05-07 02:52 | 33.82815 | -99.03284 | 35866 ft | 516 kts | 110° |
| 2026-05-07 02:52 | 33.81539 | -98.99223 | 35093 ft | 520 kts | 110° |
| 2026-05-07 02:53 | 33.80268 | -98.95185 | 34424 ft | 520 kts | 110° |
| 2026-05-07 02:53 | 33.78972 | -98.91073 | 33800 ft | 518 kts | 110° |
| 2026-05-07 02:53 | 33.77727 | -98.87121 | 33226 ft | 516 kts | 110° |
| 2026-05-07 02:53 | 33.76439 | -98.83038 | 32628 ft | 513 kts | 110° |
| 2026-05-07 02:54 | 33.75149 | -98.78959 | 31990 ft | 512 kts | 111° |
| 2026-05-07 02:54 | 33.73871 | -98.74931 | 31336 ft | 511 kts | 111° |
| 2026-05-07 02:54 | 33.72607 | -98.70961 | 30677 ft | 510 kts | 111° |
| 2026-05-07 02:54 | 33.71408 | -98.67192 | 30039 ft | 509 kts | 111° |
| 2026-05-07 02:55 | 33.70138 | -98.63197 | 29487 ft | 505 kts | 111° |
| 2026-05-07 02:55 | 33.68873 | -98.59216 | 29028 ft | 499 kts | 111° |
| 2026-05-07 02:55 | 33.67643 | -98.55343 | 28567 ft | 494 kts | 111° |
| 2026-05-07 02:55 | 33.66424 | -98.51510 | 28104 ft | 488 kts | 111° |
| 2026-05-07 02:56 | 33.65217 | -98.47716 | 27639 ft | 483 kts | 111° |
| 2026-05-07 02:56 | 33.64029 | -98.43986 | 27182 ft | 478 kts | 111° |
| 2026-05-07 02:56 | 33.62841 | -98.40257 | 26720 ft | 473 kts | 111° |
| 2026-05-07 02:56 | 33.61677 | -98.36609 | 26268 ft | 469 kts | 111° |
| 2026-05-07 02:57 | 33.60530 | -98.33012 | 25819 ft | 464 kts | 112° |
| 2026-05-07 02:57 | 33.59368 | -98.29359 | 25369 ft | 459 kts | 112° |
| 2026-05-07 02:57 | 33.58234 | -98.25806 | 24927 ft | 454 kts | 112° |
| 2026-05-07 02:57 | 33.57145 | -98.22409 | 24503 ft | 449 kts | 112° |
| 2026-05-07 02:58 | 33.56027 | -98.18931 | 24058 ft | 445 kts | 112° |
| 2026-05-07 02:58 | 33.54916 | -98.15490 | 23602 ft | 441 kts | 112° |
| 2026-05-07 02:58 | 33.53818 | -98.12091 | 23152 ft | 438 kts | 112° |
| 2026-05-07 02:58 | 33.52720 | -98.08687 | 22702 ft | 434 kts | 112° |
| 2026-05-07 02:59 | 33.51637 | -98.05329 | 22257 ft | 431 kts | 112° |
| 2026-05-07 02:59 | 33.50556 | -98.01978 | 21810 ft | 428 kts | 112° |
| 2026-05-07 02:59 | 33.49495 | -97.98692 | 21371 ft | 424 kts | 112° |
| 2026-05-07 02:59 | 33.48418 | -97.95367 | 20923 ft | 422 kts | 112° |
| 2026-05-07 03:00 | 33.47365 | -97.92118 | 20484 ft | 419 kts | 112° |
| 2026-05-07 03:00 | 33.46313 | -97.88865 | 20073 ft | 416 kts | 112° |
| 2026-05-07 03:00 | 33.45266 | -97.85613 | 19660 ft | 412 kts | 112° |
| 2026-05-07 03:00 | 33.44251 | -97.82456 | 19258 ft | 409 kts | 112° |
| 2026-05-07 03:01 | 33.43224 | -97.79263 | 18849 ft | 406 kts | 112° |
| 2026-05-07 03:01 | 33.42196 | -97.76067 | 18436 ft | 403 kts | 112° |
| 2026-05-07 03:01 | 33.41193 | -97.72957 | 18032 ft | 401 kts | 112° |
| 2026-05-07 03:01 | 33.40183 | -97.69831 | 17624 ft | 398 kts | 112° |
| 2026-05-07 03:02 | 33.39186 | -97.66782 | 17219 ft | 395 kts | 115° |
| 2026-05-07 03:02 | 33.37864 | -97.63892 | 16801 ft | 389 kts | 128° |
| 2026-05-07 03:02 | 33.36146 | -97.61453 | 16397 ft | 382 kts | 137° |
| 2026-05-07 03:02 | 33.34266 | -97.59244 | 15994 ft | 374 kts | 140° |
| 2026-05-07 03:03 | 33.32383 | -97.57101 | 15598 ft | 364 kts | 140° |
| 2026-05-07 03:03 | 33.30561 | -97.55012 | 15207 ft | 362 kts | 140° |
| 2026-05-07 03:03 | 33.28789 | -97.52952 | 14824 ft | 354 kts | 139° |
| 2026-05-07 03:03 | 33.27054 | -97.50922 | 14527 ft | 349 kts | 139° |
| 2026-05-07 03:04 | 33.25382 | -97.48966 | 14294 ft | 343 kts | 139° |
| 2026-05-07 03:04 | 33.23633 | -97.46919 | 14003 ft | 338 kts | 139° |
| 2026-05-07 03:04 | 33.21957 | -97.44956 | 13724 ft | 334 kts | 139° |
| 2026-05-07 03:04 | 33.20316 | -97.43033 | 13454 ft | 329 kts | 139° |
| 2026-05-07 03:05 | 33.18678 | -97.41112 | 13118 ft | 321 kts | 139° |
| 2026-05-07 03:05 | 33.17101 | -97.39265 | 12695 ft | 320 kts | 139° |
| 2026-05-07 03:05 | 33.15502 | -97.37397 | 12398 ft | 317 kts | 139° |
| 2026-05-07 03:05 | 33.13950 | -97.35584 | 12168 ft | 312 kts | 139° |
| 2026-05-07 03:06 | 33.12404 | -97.33772 | 12048 ft | 303 kts | 140° |
| 2026-05-07 03:06 | 33.10915 | -97.32021 | 12043 ft | 302 kts | 140° |
| 2026-05-07 03:06 | 33.09398 | -97.30244 | 12040 ft | 301 kts | 140° |
| 2026-05-07 03:06 | 33.07888 | -97.28479 | 12041 ft | 300 kts | 139° |
| 2026-05-07 03:07 | 33.06699 | -97.27090 | 12045 ft | 299 kts | 139° |
| 2026-05-07 03:07 | 33.05208 | -97.25350 | 12049 ft | 298 kts | 139° |
| 2026-05-07 03:07 | 33.03715 | -97.23609 | 12053 ft | 297 kts | 139° |
| 2026-05-07 03:07 | 33.02322 | -97.21986 | 12055 ft | 296 kts | 139° |
| 2026-05-07 03:08 | 33.00886 | -97.20316 | 12055 ft | 295 kts | 139° |
| 2026-05-07 03:08 | 32.99464 | -97.18658 | 12053 ft | 282 kts | 139° |
| 2026-05-07 03:08 | 32.97948 | -97.17307 | 12040 ft | 262 kts | 162° |
| 2026-05-07 03:08 | 32.96215 | -97.16891 | 12061 ft | 251 kts | 180° |
| 2026-05-07 03:09 | 32.94490 | -97.16814 | 12056 ft | 251 kts | 182° |
| 2026-05-07 03:09 | 32.92717 | -97.16764 | 12053 ft | 251 kts | 182° |
| 2026-05-07 03:09 | 32.90992 | -97.16702 | 12051 ft | 251 kts | 181° |
| 2026-05-07 03:09 | 32.89221 | -97.16623 | 12050 ft | 251 kts | 181° |
| 2026-05-07 03:10 | 32.87474 | -97.16534 | 12047 ft | 250 kts | 181° |
| 2026-05-07 03:10 | 32.85849 | -97.16447 | 12038 ft | 248 kts | 181° |
| 2026-05-07 03:10 | 32.84178 | -97.16357 | 11809 ft | 250 kts | 181° |
| 2026-05-07 03:10 | 32.82519 | -97.16266 | 11536 ft | 249 kts | 181° |
| 2026-05-07 03:11 | 32.80806 | -97.16171 | 11263 ft | 247 kts | 181° |
| 2026-05-07 03:11 | 32.79100 | -97.16116 | 10996 ft | 245 kts | 183° |
| 2026-05-07 03:11 | 32.77459 | -97.16106 | 10744 ft | 245 kts | 183° |
| 2026-05-07 03:11 | 32.75751 | -97.16103 | 10485 ft | 245 kts | 183° |
| 2026-05-07 03:12 | 32.74188 | -97.16103 | 10247 ft | 245 kts | 183° |
| 2026-05-07 03:12 | 32.72400 | -97.16103 | 9978 ft | 244 kts | 183° |
| 2026-05-07 03:12 | 32.70722 | -97.16106 | 9728 ft | 244 kts | 183° |
| 2026-05-07 03:12 | 32.69018 | -97.16108 | 9479 ft | 244 kts | 183° |
| 2026-05-07 03:13 | 32.67326 | -97.16110 | 9230 ft | 243 kts | 183° |
| 2026-05-07 03:13 | 32.65627 | -97.16112 | 8981 ft | 243 kts | 183° |
| 2026-05-07 03:13 | 32.64461 | -97.16113 | 8808 ft | 243 kts | 183° |
| 2026-05-07 03:13 | 32.62758 | -97.16116 | 8562 ft | 242 kts | 183° |
| 2026-05-07 03:14 | 32.61061 | -97.16118 | 8318 ft | 242 kts | 182° |
| 2026-05-07 03:14 | 32.59384 | -97.16119 | 8078 ft | 241 kts | 182° |
| 2026-05-07 03:14 | 32.56023 | -97.15888 | 7484 ft | 243 kts | 159° |
| 2026-05-07 03:15 | 32.54725 | -97.14632 | 7151 ft | 243 kts | 118° |
| 2026-05-07 03:15 | 32.54346 | -97.12721 | 6863 ft | 237 kts | 82° |
| 2026-05-07 03:15 | 32.54852 | -97.10899 | 6583 ft | 230 kts | 53° |
| 2026-05-07 03:15 | 32.55993 | -97.09631 | 6301 ft | 224 kts | 25° |
| 2026-05-07 03:16 | 32.57473 | -97.09106 | 6032 ft | 220 kts | 8° |
| 2026-05-07 03:16 | 32.58970 | -97.08832 | 5767 ft | 219 kts | 7° |
| 2026-05-07 03:16 | 32.60453 | -97.08565 | 5507 ft | 218 kts | 7° |
| 2026-05-07 03:16 | 32.61962 | -97.08279 | 5248 ft | 216 kts | 8° |
| 2026-05-07 03:17 | 32.63342 | -97.08006 | 5002 ft | 215 kts | 8° |
| 2026-05-07 03:17 | 32.64813 | -97.07705 | 4755 ft | 214 kts | 8° |
| 2026-05-07 03:17 | 32.66251 | -97.07407 | 4497 ft | 213 kts | 8° |
| 2026-05-07 03:17 | 32.67716 | -97.07101 | 4240 ft | 212 kts | 9° |
| 2026-05-07 03:18 | 32.69144 | -97.06801 | 4073 ft | 207 kts | 9° |
| 2026-05-07 03:18 | 32.70535 | -97.06503 | 3901 ft | 206 kts | 12° |
| 2026-05-07 03:18 | 32.71769 | -97.06086 | 3691 ft | 207 kts | 15° |
| 2026-05-07 03:18 | 32.73253 | -97.05701 | 3401 ft | 208 kts | 7° |
| 2026-05-07 03:19 | 32.74692 | -97.05550 | 3127 ft | 208 kts | 2° |
| 2026-05-07 03:19 | 32.76143 | -97.05513 | 2945 ft | 198 kts | 0° |
| 2026-05-07 03:19 | 32.77448 | -97.05512 | 2698 ft | 187 kts | 0° |
| 2026-05-07 03:19 | 32.78725 | -97.05514 | 2453 ft | 176 kts | 0° |
| 2026-05-07 03:20 | 32.79909 | -97.05512 | 2217 ft | 164 kts | 1° |
| 2026-05-07 03:20 | 32.80876 | -97.05508 | 2007 ft | 152 kts | 1° |
| 2026-05-07 03:20 | 32.81848 | -97.05505 | 1790 ft | 139 kts | 1° |